Terminal Aerodrome Forecast
Issued by NWS

Home | Current Version | Previous Version | Text Only | Print | Product List | Glossary On
Versions: 1 2 3 4 5 6 7 8 9 10 11 12 13 14
048
FTUS45 KFGZ 221723
TAFPRC
TAF
KPRC 221723Z 2218/2318 19005KT P6SM FEW120 BKN150
     FM221830 20015G22KT P6SM SCT080 BKN120
     FM222200 20015G22KT P6SM VCSH BKN040
     FM230000 21014KT 6SM -SHRA BKN035
      TEMPO 2300/2304 3SM TSRA OVC015CB=

USA.gov is the U.S. government's official web portal to all federal, state and local government web resources and services.